sensor_id;sensor_type;location;lat;lon;timestamp;P1;durP1;ratioP1;P2;durP2;ratioP2
29774;SDS011;16676;51.202;6.774;2022-11-20T00:01:10;8.55;;;3.85;;
29774;SDS011;16676;51.202;6.774;2022-11-20T00:05:15;7.45;;;3.97;;
29774;SDS011;16676;51.202;6.774;2022-11-20T00:09:17;6.38;;;3.78;;
29774;SDS011;16676;51.202;6.774;2022-11-20T00:13:19;7.47;;;4.28;;
29774;SDS011;16676;51.202;6.774;2022-11-20T00:17:21;7.18;;;3.70;;
29774;SDS011;16676;51.202;6.774;2022-11-20T00:21:27;5.85;;;3.30;;
29774;SDS011;16676;51.202;6.774;2022-11-20T00:25:30;8.90;;;4.18;;
29774;SDS011;16676;51.202;6.774;2022-11-20T00:29:32;6.15;;;3.47;;
29774;SDS011;16676;51.202;6.774;2022-11-20T00:33:33;8.02;;;3.97;;
29774;SDS011;16676;51.202;6.774;2022-11-20T00:37:37;5.80;;;3.70;;
29774;SDS011;16676;51.202;6.774;2022-11-20T00:41:39;8.18;;;4.10;;
29774;SDS011;16676;51.202;6.774;2022-11-20T00:45:41;8.00;;;3.53;;
29774;SDS011;16676;51.202;6.774;2022-11-20T00:49:43;8.15;;;3.90;;
29774;SDS011;16676;51.202;6.774;2022-11-20T00:53:46;7.72;;;3.50;;
29774;SDS011;16676;51.202;6.774;2022-11-20T00:57:49;7.50;;;3.75;;
29774;SDS011;16676;51.202;6.774;2022-11-20T01:01:51;8.60;;;4.10;;
29774;SDS011;16676;51.202;6.774;2022-11-20T01:05:53;6.38;;;3.33;;
29774;SDS011;16676;51.202;6.774;2022-11-20T01:09:56;6.30;;;3.65;;
29774;SDS011;16676;51.202;6.774;2022-11-20T01:13:58;4.85;;;3.20;;
29774;SDS011;16676;51.202;6.774;2022-11-20T01:18:01;8.65;;;3.67;;
29774;SDS011;16676;51.202;6.774;2022-11-20T01:22:03;8.68;;;3.53;;
29774;SDS011;16676;51.202;6.774;2022-11-20T01:26:07;7.15;;;3.55;;
29774;SDS011;16676;51.202;6.774;2022-11-20T01:30:11;6.35;;;3.50;;
29774;SDS011;16676;51.202;6.774;2022-11-20T01:34:15;5.85;;;3.33;;
29774;SDS011;16676;51.202;6.774;2022-11-20T01:38:19;4.90;;;3.28;;
29774;SDS011;16676;51.202;6.774;2022-11-20T01:42:24;7.35;;;3.50;;
29774;SDS011;16676;51.202;6.774;2022-11-20T01:46:45;6.97;;;3.78;;
29774;SDS011;16676;51.202;6.774;2022-11-20T01:50:55;6.90;;;3.40;;
29774;SDS011;16676;51.202;6.774;2022-11-20T01:55:00;7.53;;;3.58;;
29774;SDS011;16676;51.202;6.774;2022-11-20T01:59:07;5.88;;;3.22;;
29774;SDS011;16676;51.202;6.774;2022-11-20T02:03:11;4.18;;;3.10;;
29774;SDS011;16676;51.202;6.774;2022-11-20T02:07:16;7.25;;;3.55;;
29774;SDS011;16676;51.202;6.774;2022-11-20T02:11:19;6.32;;;3.20;;
29774;SDS011;16676;51.202;6.774;2022-11-20T02:15:23;6.32;;;3.75;;
29774;SDS011;16676;51.202;6.774;2022-11-20T02:19:26;6.18;;;3.90;;
29774;SDS011;16676;51.202;6.774;2022-11-20T02:23:32;5.82;;;3.00;;
29774;SDS011;16676;51.202;6.774;2022-11-20T02:27:39;5.63;;;3.40;;
29774;SDS011;16676;51.202;6.774;2022-11-20T02:31:42;7.88;;;3.00;;
29774;SDS011;16676;51.202;6.774;2022-11-20T02:35:45;5.85;;;3.55;;
29774;SDS011;16676;51.202;6.774;2022-11-20T02:39:49;6.55;;;3.70;;
29774;SDS011;16676;51.202;6.774;2022-11-20T02:43:54;5.25;;;3.42;;
29774;SDS011;16676;51.202;6.774;2022-11-20T02:47:59;5.75;;;3.20;;
29774;SDS011;16676;51.202;6.774;2022-11-20T02:52:01;6.90;;;3.60;;
29774;SDS011;16676;51.202;6.774;2022-11-20T02:56:03;5.40;;;3.45;;
29774;SDS011;16676;51.202;6.774;2022-11-20T03:00:07;5.32;;;3.42;;
29774;SDS011;16676;51.202;6.774;2022-11-20T03:04:10;3.85;;;2.83;;
29774;SDS011;16676;51.202;6.774;2022-11-20T03:08:12;5.15;;;3.05;;
29774;SDS011;16676;51.202;6.774;2022-11-20T03:12:14;5.57;;;3.42;;
29774;SDS011;16676;51.202;6.774;2022-11-20T03:16:18;6.72;;;3.55;;
29774;SDS011;16676;51.202;6.774;2022-11-20T03:20:21;5.45;;;3.13;;
29774;SDS011;16676;51.202;6.774;2022-11-20T03:24:23;5.93;;;3.20;;
29774;SDS011;16676;51.202;6.774;2022-11-20T03:28:25;7.47;;;3.30;;
29774;SDS011;16676;51.202;6.774;2022-11-20T03:32:29;5.55;;;3.22;;
29774;SDS011;16676;51.202;6.774;2022-11-20T03:36:31;3.47;;;2.88;;
29774;SDS011;16676;51.202;6.774;2022-11-20T03:40:33;5.38;;;3.33;;
29774;SDS011;16676;51.202;6.774;2022-11-20T03:44:36;6.75;;;3.80;;
29774;SDS011;16676;51.202;6.774;2022-11-20T03:48:40;4.47;;;3.15;;
29774;SDS011;16676;51.202;6.774;2022-11-20T03:52:42;5.68;;;3.50;;
29774;SDS011;16676;51.202;6.774;2022-11-20T03:56:44;3.70;;;2.97;;
29774;SDS011;16676;51.202;6.774;2022-11-20T04:00:46;5.43;;;3.13;;
29774;SDS011;16676;51.202;6.774;2022-11-20T04:04:49;4.90;;;3.22;;
29774;SDS011;16676;51.202;6.774;2022-11-20T04:08:51;5.55;;;3.42;;
29774;SDS011;16676;51.202;6.774;2022-11-20T04:12:55;5.18;;;3.38;;
29774;SDS011;16676;51.202;6.774;2022-11-20T04:16:57;4.93;;;3.03;;
29774;SDS011;16676;51.202;6.774;2022-11-20T04:21:01;4.38;;;3.10;;
29774;SDS011;16676;51.202;6.774;2022-11-20T04:25:04;4.47;;;3.05;;
29774;SDS011;16676;51.202;6.774;2022-11-20T04:29:06;3.58;;;2.95;;
29774;SDS011;16676;51.202;6.774;2022-11-20T04:33:31;4.85;;;3.25;;
29774;SDS011;16676;51.202;6.774;2022-11-20T04:37:54;5.35;;;3.13;;
29774;SDS011;16676;51.202;6.774;2022-11-20T04:42:16;4.70;;;3.40;;
29774;SDS011;16676;51.202;6.774;2022-11-20T04:46:33;4.22;;;3.03;;
29774;SDS011;16676;51.202;6.774;2022-11-20T04:50:39;3.30;;;2.63;;
29774;SDS011;16676;51.202;6.774;2022-11-20T04:54:42;5.15;;;3.15;;
29774;SDS011;16676;51.202;6.774;2022-11-20T04:58:44;3.80;;;2.90;;
29774;SDS011;16676;51.202;6.774;2022-11-20T05:02:46;4.22;;;3.30;;
29774;SDS011;16676;51.202;6.774;2022-11-20T05:06:49;3.35;;;2.63;;
29774;SDS011;16676;51.202;6.774;2022-11-20T05:10:52;5.28;;;3.20;;
29774;SDS011;16676;51.202;6.774;2022-11-20T05:14:54;4.25;;;3.15;;
29774;SDS011;16676;51.202;6.774;2022-11-20T05:18:56;6.05;;;3.42;;
29774;SDS011;16676;51.202;6.774;2022-11-20T05:22:58;6.15;;;3.28;;
29774;SDS011;16676;51.202;6.774;2022-11-20T05:27:01;5.30;;;3.25;;
29774;SDS011;16676;51.202;6.774;2022-11-20T05:31:04;4.82;;;3.20;;
29774;SDS011;16676;51.202;6.774;2022-11-20T05:35:07;4.53;;;3.00;;
29774;SDS011;16676;51.202;6.774;2022-11-20T05:39:09;6.97;;;3.13;;
29774;SDS011;16676;51.202;6.774;2022-11-20T05:43:12;4.57;;;3.10;;
29774;SDS011;16676;51.202;6.774;2022-11-20T05:47:14;4.65;;;2.90;;
29774;SDS011;16676;51.202;6.774;2022-11-20T05:51:17;3.85;;;2.97;;
29774;SDS011;16676;51.202;6.774;2022-11-20T05:55:20;4.20;;;3.33;;
29774;SDS011;16676;51.202;6.774;2022-11-20T05:59:23;4.35;;;3.00;;
29774;SDS011;16676;51.202;6.774;2022-11-20T06:03:25;5.07;;;3.30;;
29774;SDS011;16676;51.202;6.774;2022-11-20T06:07:27;4.07;;;3.13;;
29774;SDS011;16676;51.202;6.774;2022-11-20T06:11:29;4.32;;;2.90;;
29774;SDS011;16676;51.202;6.774;2022-11-20T06:15:32;4.07;;;2.97;;
29774;SDS011;16676;51.202;6.774;2022-11-20T06:19:34;4.25;;;3.03;;
29774;SDS011;16676;51.202;6.774;2022-11-20T06:23:36;4.75;;;3.15;;
29774;SDS011;16676;51.202;6.774;2022-11-20T06:27:39;3.35;;;2.53;;
29774;SDS011;16676;51.202;6.774;2022-11-20T06:31:42;3.58;;;3.03;;
29774;SDS011;16676;51.202;6.774;2022-11-20T06:35:44;4.50;;;2.95;;
29774;SDS011;16676;51.202;6.774;2022-11-20T06:39:46;3.85;;;3.00;;
29774;SDS011;16676;51.202;6.774;2022-11-20T06:43:49;3.92;;;3.10;;
29774;SDS011;16676;51.202;6.774;2022-11-20T06:47:52;5.07;;;3.30;;
29774;SDS011;16676;51.202;6.774;2022-11-20T06:51:54;3.88;;;2.97;;
29774;SDS011;16676;51.202;6.774;2022-11-20T06:55:56;3.67;;;2.80;;
29774;SDS011;16676;51.202;6.774;2022-11-20T06:59:58;3.63;;;2.90;;
29774;SDS011;16676;51.202;6.774;2022-11-20T07:04:02;4.03;;;2.88;;
29774;SDS011;16676;51.202;6.774;2022-11-20T07:08:04;3.65;;;3.05;;
29774;SDS011;16676;51.202;6.774;2022-11-20T07:12:06;4.88;;;3.08;;
29774;SDS011;16676;51.202;6.774;2022-11-20T07:16:08;4.13;;;3.03;;
29774;SDS011;16676;51.202;6.774;2022-11-20T07:24:15;4.53;;;2.90;;
29774;SDS011;16676;51.202;6.774;2022-11-20T07:28:17;4.50;;;2.92;;
29774;SDS011;16676;51.202;6.774;2022-11-20T07:32:19;4.35;;;2.97;;
29774;SDS011;16676;51.202;6.774;2022-11-20T07:36:22;4.03;;;3.03;;
29774;SDS011;16676;51.202;6.774;2022-11-20T07:40:24;4.40;;;3.08;;
29774;SDS011;16676;51.202;6.774;2022-11-20T07:44:26;5.65;;;3.25;;
29774;SDS011;16676;51.202;6.774;2022-11-20T07:48:28;5.57;;;2.88;;
29774;SDS011;16676;51.202;6.774;2022-11-20T07:52:32;4.70;;;3.10;;
29774;SDS011;16676;51.202;6.774;2022-11-20T07:56:34;4.22;;;3.00;;
29774;SDS011;16676;51.202;6.774;2022-11-20T08:00:36;4.93;;;3.10;;
29774;SDS011;16676;51.202;6.774;2022-11-20T08:04:37;5.05;;;3.47;;
29774;SDS011;16676;51.202;6.774;2022-11-20T08:08:41;7.03;;;4.68;;
29774;SDS011;16676;51.202;6.774;2022-11-20T08:12:43;18.35;;;13.68;;
29774;SDS011;16676;51.202;6.774;2022-11-20T08:17:04;20.83;;;14.65;;
29774;SDS011;16676;51.202;6.774;2022-11-20T08:21:06;23.52;;;15.93;;
29774;SDS011;16676;51.202;6.774;2022-11-20T08:25:09;24.45;;;13.38;;
29774;SDS011;16676;51.202;6.774;2022-11-20T08:29:11;20.00;;;13.13;;
29774;SDS011;16676;51.202;6.774;2022-11-20T08:33:13;16.50;;;11.98;;
29774;SDS011;16676;51.202;6.774;2022-11-20T08:37:17;17.05;;;10.77;;
29774;SDS011;16676;51.202;6.774;2022-11-20T08:41:20;17.27;;;10.55;;
29774;SDS011;16676;51.202;6.774;2022-11-20T08:45:27;18.50;;;10.98;;
29774;SDS011;16676;51.202;6.774;2022-11-20T08:49:29;17.55;;;9.60;;
29774;SDS011;16676;51.202;6.774;2022-11-20T08:53:31;17.73;;;10.63;;
29774;SDS011;16676;51.202;6.774;2022-11-20T08:57:34;15.75;;;10.02;;
29774;SDS011;16676;51.202;6.774;2022-11-20T09:01:37;15.65;;;9.85;;
29774;SDS011;16676;51.202;6.774;2022-11-20T09:05:39;14.75;;;9.52;;
29774;SDS011;16676;51.202;6.774;2022-11-20T09:09:42;14.57;;;8.82;;
29774;SDS011;16676;51.202;6.774;2022-11-20T09:13:46;13.10;;;8.63;;
29774;SDS011;16676;51.202;6.774;2022-11-20T09:17:51;11.57;;;7.82;;
29774;SDS011;16676;51.202;6.774;2022-11-20T09:21:53;12.38;;;8.25;;
29774;SDS011;16676;51.202;6.774;2022-11-20T09:25:55;11.35;;;7.50;;
29774;SDS011;16676;51.202;6.774;2022-11-20T09:30:01;11.80;;;7.78;;
29774;SDS011;16676;51.202;6.774;2022-11-20T09:34:03;9.90;;;6.78;;
29774;SDS011;16676;51.202;6.774;2022-11-20T09:38:05;11.30;;;6.93;;
29774;SDS011;16676;51.202;6.774;2022-11-20T09:42:11;13.65;;;7.43;;
29774;SDS011;16676;51.202;6.774;2022-11-20T09:46:26;10.55;;;7.28;;
29774;SDS011;16676;51.202;6.774;2022-11-20T09:50:37;9.20;;;6.90;;
29774;SDS011;16676;51.202;6.774;2022-11-20T09:54:48;9.68;;;6.60;;
29774;SDS011;16676;51.202;6.774;2022-11-20T09:58:52;7.60;;;5.90;;
29774;SDS011;16676;51.202;6.774;2022-11-20T10:02:59;8.65;;;6.30;;
29774;SDS011;16676;51.202;6.774;2022-11-20T10:07:07;9.13;;;6.35;;
29774;SDS011;16676;51.202;6.774;2022-11-20T10:11:18;8.70;;;5.43;;
29774;SDS011;16676;51.202;6.774;2022-11-20T10:15:31;7.88;;;5.35;;
29774;SDS011;16676;51.202;6.774;2022-11-20T10:19:44;9.00;;;5.45;;
29774;SDS011;16676;51.202;6.774;2022-11-20T10:24:01;8.52;;;5.80;;
29774;SDS011;16676;51.202;6.774;2022-11-20T10:28:35;10.27;;;6.20;;
29774;SDS011;16676;51.202;6.774;2022-11-20T10:32:48;9.65;;;5.70;;
29774;SDS011;16676;51.202;6.774;2022-11-20T10:36:55;7.57;;;5.53;;
29774;SDS011;16676;51.202;6.774;2022-11-20T10:41:03;9.32;;;5.90;;
29774;SDS011;16676;51.202;6.774;2022-11-20T10:45:32;12.88;;;6.25;;
29774;SDS011;16676;51.202;6.774;2022-11-20T10:49:41;19.30;;;7.10;;
29774;SDS011;16676;51.202;6.774;2022-11-20T10:53:53;22.73;;;8.07;;
29774;SDS011;16676;51.202;6.774;2022-11-20T10:58:00;22.45;;;6.78;;
29774;SDS011;16676;51.202;6.774;2022-11-20T11:02:16;14.98;;;7.15;;
29774;SDS011;16676;51.202;6.774;2022-11-20T11:06:25;20.38;;;6.70;;
29774;SDS011;16676;51.202;6.774;2022-11-20T11:10:37;17.63;;;7.30;;
29774;SDS011;16676;51.202;6.774;2022-11-20T11:14:47;19.48;;;7.13;;
29774;SDS011;16676;51.202;6.774;2022-11-20T11:18:50;16.35;;;6.88;;
29774;SDS011;16676;51.202;6.774;2022-11-20T11:22:54;15.48;;;6.57;;
29774;SDS011;16676;51.202;6.774;2022-11-20T11:26:59;15.60;;;5.97;;
29774;SDS011;16676;51.202;6.774;2022-11-20T11:31:04;17.05;;;7.18;;
29774;SDS011;16676;51.202;6.774;2022-11-20T11:35:11;13.13;;;5.88;;
29774;SDS011;16676;51.202;6.774;2022-11-20T11:39:21;13.50;;;5.90;;
29774;SDS011;16676;51.202;6.774;2022-11-20T11:43:26;14.75;;;5.60;;
29774;SDS011;16676;51.202;6.774;2022-11-20T11:47:49;17.88;;;5.63;;
29774;SDS011;16676;51.202;6.774;2022-11-20T11:51:58;12.02;;;5.65;;
29774;SDS011;16676;51.202;6.774;2022-11-20T11:56:05;10.60;;;5.38;;
29774;SDS011;16676;51.202;6.774;2022-11-20T12:00:13;11.13;;;5.32;;
29774;SDS011;16676;51.202;6.774;2022-11-20T12:04:19;23.60;;;6.15;;
29774;SDS011;16676;51.202;6.774;2022-11-20T12:08:28;18.75;;;5.47;;
29774;SDS011;16676;51.202;6.774;2022-11-20T12:12:35;14.13;;;5.05;;
29774;SDS011;16676;51.202;6.774;2022-11-20T12:16:43;13.27;;;5.28;;
29774;SDS011;16676;51.202;6.774;2022-11-20T12:20:45;15.68;;;5.75;;
29774;SDS011;16676;51.202;6.774;2022-11-20T12:24:54;20.08;;;6.57;;
29774;SDS011;16676;51.202;6.774;2022-11-20T12:29:02;20.60;;;7.28;;
29774;SDS011;16676;51.202;6.774;2022-11-20T12:33:27;20.73;;;7.68;;
29774;SDS011;16676;51.202;6.774;2022-11-20T12:37:52;24.80;;;7.65;;
29774;SDS011;16676;51.202;6.774;2022-11-20T12:42:14;22.48;;;7.43;;
29774;SDS011;16676;51.202;6.774;2022-11-20T12:46:45;16.05;;;6.97;;
29774;SDS011;16676;51.202;6.774;2022-11-20T12:50:56;21.13;;;7.33;;
29774;SDS011;16676;51.202;6.774;2022-11-20T12:55:12;21.05;;;6.63;;
29774;SDS011;16676;51.202;6.774;2022-11-20T12:59:27;23.73;;;7.68;;
29774;SDS011;16676;51.202;6.774;2022-11-20T13:03:42;18.63;;;7.40;;
29774;SDS011;16676;51.202;6.774;2022-11-20T13:07:51;19.48;;;6.65;;
29774;SDS011;16676;51.202;6.774;2022-11-20T13:11:57;18.75;;;7.00;;
29774;SDS011;16676;51.202;6.774;2022-11-20T13:16:06;17.52;;;6.05;;
29774;SDS011;16676;51.202;6.774;2022-11-20T13:20:13;20.55;;;7.45;;
29774;SDS011;16676;51.202;6.774;2022-11-20T13:24:22;15.45;;;6.15;;
29774;SDS011;16676;51.202;6.774;2022-11-20T13:28:28;17.73;;;6.10;;
29774;SDS011;16676;51.202;6.774;2022-11-20T13:32:31;14.13;;;6.30;;
29774;SDS011;16676;51.202;6.774;2022-11-20T13:36:33;17.65;;;6.78;;
29774;SDS011;16676;51.202;6.774;2022-11-20T13:40:38;15.45;;;5.95;;
29774;SDS011;16676;51.202;6.774;2022-11-20T13:44:53;16.90;;;6.82;;
29774;SDS011;16676;51.202;6.774;2022-11-20T13:48:56;19.58;;;6.60;;
29774;SDS011;16676;51.202;6.774;2022-11-20T13:53:00;12.35;;;6.30;;
29774;SDS011;16676;51.202;6.774;2022-11-20T13:57:14;21.45;;;6.18;;
29774;SDS011;16676;51.202;6.774;2022-11-20T14:01:29;15.23;;;6.15;;
29774;SDS011;16676;51.202;6.774;2022-11-20T14:05:35;17.38;;;6.68;;
29774;SDS011;16676;51.202;6.774;2022-11-20T14:09:48;16.42;;;6.70;;
29774;SDS011;16676;51.202;6.774;2022-11-20T14:13:59;17.85;;;6.20;;
29774;SDS011;16676;51.202;6.774;2022-11-20T14:18:11;16.23;;;6.65;;
29774;SDS011;16676;51.202;6.774;2022-11-20T14:22:16;16.92;;;6.72;;
29774;SDS011;16676;51.202;6.774;2022-11-20T14:26:21;16.52;;;6.60;;
29774;SDS011;16676;51.202;6.774;2022-11-20T14:30:25;17.08;;;7.00;;
29774;SDS011;16676;51.202;6.774;2022-11-20T14:34:30;16.30;;;7.07;;
29774;SDS011;16676;51.202;6.774;2022-11-20T14:38:33;19.13;;;6.60;;
29774;SDS011;16676;51.202;6.774;2022-11-20T14:42:36;13.90;;;6.43;;
29774;SDS011;16676;51.202;6.774;2022-11-20T14:46:39;15.80;;;7.53;;
29774;SDS011;16676;51.202;6.774;2022-11-20T14:50:42;17.77;;;7.05;;
29774;SDS011;16676;51.202;6.774;2022-11-20T14:54:45;19.38;;;7.57;;
29774;SDS011;16676;51.202;6.774;2022-11-20T14:58:54;20.00;;;7.15;;
29774;SDS011;16676;51.202;6.774;2022-11-20T15:02:59;15.75;;;7.30;;
29774;SDS011;16676;51.202;6.774;2022-11-20T15:07:01;20.73;;;6.95;;
29774;SDS011;16676;51.202;6.774;2022-11-20T15:11:14;18.77;;;6.50;;
29774;SDS011;16676;51.202;6.774;2022-11-20T15:15:20;14.82;;;6.75;;
29774;SDS011;16676;51.202;6.774;2022-11-20T15:19:27;13.43;;;6.47;;
29774;SDS011;16676;51.202;6.774;2022-11-20T15:23:30;13.80;;;6.05;;
29774;SDS011;16676;51.202;6.774;2022-11-20T15:27:32;16.25;;;6.45;;
29774;SDS011;16676;51.202;6.774;2022-11-20T15:31:34;18.95;;;6.97;;
29774;SDS011;16676;51.202;6.774;2022-11-20T15:35:37;19.33;;;6.72;;
29774;SDS011;16676;51.202;6.774;2022-11-20T15:39:39;12.82;;;6.15;;
29774;SDS011;16676;51.202;6.774;2022-11-20T15:43:41;16.40;;;6.47;;
29774;SDS011;16676;51.202;6.774;2022-11-20T15:47:44;17.20;;;7.05;;
29774;SDS011;16676;51.202;6.774;2022-11-20T15:51:48;18.45;;;6.88;;
29774;SDS011;16676;51.202;6.774;2022-11-20T15:55:53;17.38;;;6.97;;
29774;SDS011;16676;51.202;6.774;2022-11-20T15:59:55;15.00;;;6.90;;
29774;SDS011;16676;51.202;6.774;2022-11-20T16:03:58;14.13;;;6.60;;
29774;SDS011;16676;51.202;6.774;2022-11-20T16:08:02;14.32;;;6.72;;
29774;SDS011;16676;51.202;6.774;2022-11-20T16:12:04;15.35;;;6.60;;
29774;SDS011;16676;51.202;6.774;2022-11-20T16:16:07;20.27;;;7.40;;
29774;SDS011;16676;51.202;6.774;2022-11-20T16:20:12;17.88;;;7.00;;
29774;SDS011;16676;51.202;6.774;2022-11-20T16:24:15;15.93;;;6.65;;
29774;SDS011;16676;51.202;6.774;2022-11-20T16:28:18;19.30;;;7.57;;
29774;SDS011;16676;51.202;6.774;2022-11-20T16:32:23;13.43;;;7.25;;
29774;SDS011;16676;51.202;6.774;2022-11-20T16:36:25;16.33;;;7.13;;
29774;SDS011;16676;51.202;6.774;2022-11-20T16:40:30;16.02;;;6.53;;
29774;SDS011;16676;51.202;6.774;2022-11-20T16:44:32;18.33;;;6.82;;
29774;SDS011;16676;51.202;6.774;2022-11-20T16:48:35;19.80;;;8.18;;
29774;SDS011;16676;51.202;6.774;2022-11-20T16:52:37;22.17;;;8.10;;
29774;SDS011;16676;51.202;6.774;2022-11-20T16:56:40;19.90;;;7.85;;
29774;SDS011;16676;51.202;6.774;2022-11-20T17:00:42;24.10;;;8.55;;
29774;SDS011;16676;51.202;6.774;2022-11-20T17:04:45;19.20;;;8.63;;
29774;SDS011;16676;51.202;6.774;2022-11-20T17:08:47;22.20;;;8.70;;
29774;SDS011;16676;51.202;6.774;2022-11-20T17:12:51;20.45;;;8.32;;
29774;SDS011;16676;51.202;6.774;2022-11-20T17:16:53;15.10;;;7.65;;
29774;SDS011;16676;51.202;6.774;2022-11-20T17:20:55;19.38;;;8.07;;
29774;SDS011;16676;51.202;6.774;2022-11-20T17:24:57;19.25;;;8.88;;
29774;SDS011;16676;51.202;6.774;2022-11-20T17:29:02;20.10;;;8.23;;
29774;SDS011;16676;51.202;6.774;2022-11-20T17:33:05;23.20;;;8.40;;
29774;SDS011;16676;51.202;6.774;2022-11-20T17:37:07;19.63;;;7.50;;
29774;SDS011;16676;51.202;6.774;2022-11-20T17:41:10;18.85;;;7.13;;
29774;SDS011;16676;51.202;6.774;2022-11-20T17:45:14;17.10;;;7.47;;
29774;SDS011;16676;51.202;6.774;2022-11-20T17:49:16;13.50;;;7.10;;
29774;SDS011;16676;51.202;6.774;2022-11-20T17:53:18;21.85;;;7.75;;
29774;SDS011;16676;51.202;6.774;2022-11-20T17:57:20;20.05;;;7.22;;
29774;SDS011;16676;51.202;6.774;2022-11-20T18:01:41;14.80;;;7.05;;
29774;SDS011;16676;51.202;6.774;2022-11-20T18:05:43;17.52;;;7.13;;
29774;SDS011;16676;51.202;6.774;2022-11-20T18:09:45;16.30;;;7.50;;
29774;SDS011;16676;51.202;6.774;2022-11-20T18:13:48;13.45;;;6.22;;
29774;SDS011;16676;51.202;6.774;2022-11-20T18:18:10;13.18;;;6.65;;
29774;SDS011;16676;51.202;6.774;2022-11-20T18:22:14;14.40;;;5.95;;
29774;SDS011;16676;51.202;6.774;2022-11-20T18:26:18;16.55;;;6.28;;
29774;SDS011;16676;51.202;6.774;2022-11-20T18:30:20;17.42;;;6.18;;
29774;SDS011;16676;51.202;6.774;2022-11-20T18:34:26;10.10;;;4.97;;
29774;SDS011;16676;51.202;6.774;2022-11-20T18:38:28;9.00;;;4.75;;
29774;SDS011;16676;51.202;6.774;2022-11-20T18:42:30;8.68;;;4.40;;
29774;SDS011;16676;51.202;6.774;2022-11-20T18:46:51;10.55;;;4.40;;
29774;SDS011;16676;51.202;6.774;2022-11-20T18:50:54;7.80;;;4.35;;
29774;SDS011;16676;51.202;6.774;2022-11-20T18:55:05;8.82;;;4.13;;
29774;SDS011;16676;51.202;6.774;2022-11-20T18:59:08;7.70;;;4.40;;
29774;SDS011;16676;51.202;6.774;2022-11-20T19:03:11;8.88;;;4.03;;
29774;SDS011;16676;51.202;6.774;2022-11-20T19:07:14;8.35;;;4.47;;
29774;SDS011;16676;51.202;6.774;2022-11-20T19:11:17;6.65;;;4.10;;
29774;SDS011;16676;51.202;6.774;2022-11-20T19:15:19;9.95;;;3.80;;
29774;SDS011;16676;51.202;6.774;2022-11-20T19:19:21;9.57;;;4.40;;
29774;SDS011;16676;51.202;6.774;2022-11-20T19:23:24;6.72;;;3.63;;
29774;SDS011;16676;51.202;6.774;2022-11-20T19:27:26;11.45;;;4.05;;
29774;SDS011;16676;51.202;6.774;2022-11-20T19:31:29;6.63;;;3.85;;
29774;SDS011;16676;51.202;6.774;2022-11-20T19:35:31;7.05;;;3.83;;
29774;SDS011;16676;51.202;6.774;2022-11-20T19:39:34;7.15;;;3.40;;
29774;SDS011;16676;51.202;6.774;2022-11-20T19:43:37;5.68;;;3.25;;
29774;SDS011;16676;51.202;6.774;2022-11-20T19:47:39;6.68;;;3.42;;
29774;SDS011;16676;51.202;6.774;2022-11-20T19:51:44;6.05;;;3.00;;
29774;SDS011;16676;51.202;6.774;2022-11-20T19:55:55;10.82;;;3.35;;
29774;SDS011;16676;51.202;6.774;2022-11-20T19:59:58;4.55;;;3.10;;
29774;SDS011;16676;51.202;6.774;2022-11-20T20:04:00;9.65;;;3.28;;
29774;SDS011;16676;51.202;6.774;2022-11-20T20:08:04;5.05;;;3.22;;
29774;SDS011;16676;51.202;6.774;2022-11-20T20:12:08;4.28;;;2.85;;
29774;SDS011;16676;51.202;6.774;2022-11-20T20:16:10;6.32;;;3.00;;
29774;SDS011;16676;51.202;6.774;2022-11-20T20:20:14;5.13;;;2.80;;
29774;SDS011;16676;51.202;6.774;2022-11-20T20:24:16;7.07;;;3.15;;
29774;SDS011;16676;51.202;6.774;2022-11-20T20:28:20;4.63;;;2.83;;
29774;SDS011;16676;51.202;6.774;2022-11-20T20:32:22;6.03;;;2.80;;
29774;SDS011;16676;51.202;6.774;2022-11-20T20:36:24;5.43;;;2.67;;
29774;SDS011;16676;51.202;6.774;2022-11-20T20:40:27;5.00;;;2.78;;
29774;SDS011;16676;51.202;6.774;2022-11-20T20:44:30;3.45;;;2.63;;
29774;SDS011;16676;51.202;6.774;2022-11-20T20:48:50;6.25;;;2.85;;
29774;SDS011;16676;51.202;6.774;2022-11-20T20:52:53;4.22;;;2.45;;
29774;SDS011;16676;51.202;6.774;2022-11-20T20:56:55;4.82;;;2.63;;
29774;SDS011;16676;51.202;6.774;2022-11-20T21:01:01;5.72;;;2.90;;
29774;SDS011;16676;51.202;6.774;2022-11-20T21:05:04;4.68;;;2.80;;
29774;SDS011;16676;51.202;6.774;2022-11-20T21:09:06;6.22;;;2.72;;
29774;SDS011;16676;51.202;6.774;2022-11-20T21:13:08;5.45;;;2.70;;
29774;SDS011;16676;51.202;6.774;2022-11-20T21:17:12;6.65;;;2.65;;
29774;SDS011;16676;51.202;6.774;2022-11-20T21:21:14;5.57;;;2.60;;
29774;SDS011;16676;51.202;6.774;2022-11-20T21:25:35;6.82;;;2.65;;
29774;SDS011;16676;51.202;6.774;2022-11-20T21:29:37;3.08;;;2.25;;
29774;SDS011;16676;51.202;6.774;2022-11-20T21:33:41;4.50;;;2.47;;
29774;SDS011;16676;51.202;6.774;2022-11-20T21:37:44;5.07;;;2.60;;
29774;SDS011;16676;51.202;6.774;2022-11-20T21:41:46;4.38;;;2.60;;
29774;SDS011;16676;51.202;6.774;2022-11-20T21:45:48;4.78;;;2.67;;
29774;SDS011;16676;51.202;6.774;2022-11-20T21:49:52;3.55;;;2.20;;
29774;SDS011;16676;51.202;6.774;2022-11-20T21:53:54;3.88;;;2.13;;
29774;SDS011;16676;51.202;6.774;2022-11-20T21:57:56;5.53;;;2.28;;
29774;SDS011;16676;51.202;6.774;2022-11-20T22:01:58;4.00;;;2.30;;
29774;SDS011;16676;51.202;6.774;2022-11-20T22:06:02;3.75;;;2.03;;
29774;SDS011;16676;51.202;6.774;2022-11-20T22:10:05;3.50;;;2.17;;
29774;SDS011;16676;51.202;6.774;2022-11-20T22:14:08;4.50;;;2.20;;
29774;SDS011;16676;51.202;6.774;2022-11-20T22:18:22;5.18;;;2.35;;
29774;SDS011;16676;51.202;6.774;2022-11-20T22:22:26;5.65;;;2.38;;
29774;SDS011;16676;51.202;6.774;2022-11-20T22:26:28;4.55;;;2.28;;
29774;SDS011;16676;51.202;6.774;2022-11-20T22:30:31;3.33;;;2.13;;
29774;SDS011;16676;51.202;6.774;2022-11-20T22:34:33;4.55;;;1.90;;
29774;SDS011;16676;51.202;6.774;2022-11-20T22:38:37;5.43;;;2.17;;
29774;SDS011;16676;51.202;6.774;2022-11-20T22:42:42;3.05;;;2.00;;
29774;SDS011;16676;51.202;6.774;2022-11-20T22:46:45;3.40;;;2.10;;
29774;SDS011;16676;51.202;6.774;2022-11-20T22:50:47;4.22;;;2.28;;
29774;SDS011;16676;51.202;6.774;2022-11-20T22:54:50;3.33;;;2.10;;
29774;SDS011;16676;51.202;6.774;2022-11-20T22:58:52;3.97;;;2.05;;
29774;SDS011;16676;51.202;6.774;2022-11-20T23:02:55;3.75;;;2.33;;
29774;SDS011;16676;51.202;6.774;2022-11-20T23:06:57;4.22;;;2.00;;
29774;SDS011;16676;51.202;6.774;2022-11-20T23:11:00;4.35;;;2.30;;
29774;SDS011;16676;51.202;6.774;2022-11-20T23:15:04;7.03;;;2.42;;
29774;SDS011;16676;51.202;6.774;2022-11-20T23:19:08;3.17;;;2.10;;
29774;SDS011;16676;51.202;6.774;2022-11-20T23:23:11;2.88;;;1.77;;
29774;SDS011;16676;51.202;6.774;2022-11-20T23:27:14;4.15;;;2.00;;
29774;SDS011;16676;51.202;6.774;2022-11-20T23:31:16;5.65;;;1.95;;
29774;SDS011;16676;51.202;6.774;2022-11-20T23:35:18;6.15;;;2.30;;
29774;SDS011;16676;51.202;6.774;2022-11-20T23:39:20;4.68;;;2.03;;
29774;SDS011;16676;51.202;6.774;2022-11-20T23:43:24;2.95;;;1.70;;
29774;SDS011;16676;51.202;6.774;2022-11-20T23:47:26;2.35;;;1.73;;
29774;SDS011;16676;51.202;6.774;2022-11-20T23:51:28;4.10;;;2.17;;
29774;SDS011;16676;51.202;6.774;2022-11-20T23:55:31;3.50;;;1.92;;
29774;SDS011;16676;51.202;6.774;2022-11-20T23:59:35;3.97;;;2.05;;
